sensor_id;sensor_type;location;lat;lon;timestamp;temperature;humidity
12911;DHT22;6523;49.758;6.120;2023-03-01T00:01:25;-3.10;99.90
12911;DHT22;6523;49.758;6.120;2023-03-01T00:03:51;-3.10;99.90
12911;DHT22;6523;49.758;6.120;2023-03-01T00:06:18;-3.00;99.90
12911;DHT22;6523;49.758;6.120;2023-03-01T00:08:44;-2.90;99.90
12911;DHT22;6523;49.758;6.120;2023-03-01T00:11:24;-2.90;99.90
12911;DHT22;6523;49.758;6.120;2023-03-01T00:13:52;-2.80;99.90
12911;DHT22;6523;49.758;6.120;2023-03-01T00:16:30;-2.90;99.90
12911;DHT22;6523;49.758;6.120;2023-03-01T00:18:57;-3.30;99.90
12911;DHT22;6523;49.758;6.120;2023-03-01T00:21:23;-3.40;99.90
12911;DHT22;6523;49.758;6.120;2023-03-01T00:23:49;-3.40;99.90
12911;DHT22;6523;49.758;6.120;2023-03-01T00:26:17;-3.30;99.90
12911;DHT22;6523;49.758;6.120;2023-03-01T00:28:43;-3.60;99.90
12911;DHT22;6523;49.758;6.120;2023-03-01T00:31:12;-3.60;99.90
12911;DHT22;6523;49.758;6.120;2023-03-01T00:33:39;-3.60;99.90
12911;DHT22;6523;49.758;6.120;2023-03-01T00:36:05;-3.60;99.90
12911;DHT22;6523;49.758;6.120;2023-03-01T00:38:35;-3.70;99.90
12911;DHT22;6523;49.758;6.120;2023-03-01T00:41:08;-3.70;99.90
12911;DHT22;6523;49.758;6.120;2023-03-01T00:43:35;-3.50;99.90
12911;DHT22;6523;49.758;6.120;2023-03-01T00:46:10;-3.50;99.90
12911;DHT22;6523;49.758;6.120;2023-03-01T00:48:37;-3.70;99.90
12911;DHT22;6523;49.758;6.120;2023-03-01T00:51:08;-3.60;99.90
12911;DHT22;6523;49.758;6.120;2023-03-01T00:53:34;-3.60;99.90
12911;DHT22;6523;49.758;6.120;2023-03-01T00:56:00;-3.60;99.90
12911;DHT22;6523;49.758;6.120;2023-03-01T00:58:26;-3.50;99.90
12911;DHT22;6523;49.758;6.120;2023-03-01T01:00:51;-3.40;99.90
12911;DHT22;6523;49.758;6.120;2023-03-01T01:03:20;-3.30;99.90
12911;DHT22;6523;49.758;6.120;2023-03-01T01:05:46;-3.30;99.90
12911;DHT22;6523;49.758;6.120;2023-03-01T01:08:12;-3.50;99.90
12911;DHT22;6523;49.758;6.120;2023-03-01T01:10:37;-3.50;99.90
12911;DHT22;6523;49.758;6.120;2023-03-01T01:13:04;-3.40;99.90
12911;DHT22;6523;49.758;6.120;2023-03-01T01:15:33;-3.40;99.90
12911;DHT22;6523;49.758;6.120;2023-03-01T01:17:59;-3.30;99.90
12911;DHT22;6523;49.758;6.120;2023-03-01T01:20:24;-3.30;99.90
12911;DHT22;6523;49.758;6.120;2023-03-01T01:22:50;-3.20;99.90
12911;DHT22;6523;49.758;6.120;2023-03-01T01:25:16;-3.20;99.90
12911;DHT22;6523;49.758;6.120;2023-03-01T01:27:42;-3.30;99.90
12911;DHT22;6523;49.758;6.120;2023-03-01T01:30:08;-3.40;99.90
12911;DHT22;6523;49.758;6.120;2023-03-01T01:32:33;-3.40;99.90
12911;DHT22;6523;49.758;6.120;2023-03-01T01:34:59;-3.30;99.90
12911;DHT22;6523;49.758;6.120;2023-03-01T01:37:25;-3.30;99.90
12911;DHT22;6523;49.758;6.120;2023-03-01T01:39:57;-3.40;99.90
12911;DHT22;6523;49.758;6.120;2023-03-01T01:42:23;-3.40;99.90
12911;DHT22;6523;49.758;6.120;2023-03-01T01:47:51;-3.40;99.90
12911;DHT22;6523;49.758;6.120;2023-03-01T01:50:18;-3.30;99.90
12911;DHT22;6523;49.758;6.120;2023-03-01T01:52:45;-3.30;99.90
12911;DHT22;6523;49.758;6.120;2023-03-01T01:55:17;-3.40;99.90
12911;DHT22;6523;49.758;6.120;2023-03-01T01:57:49;-3.30;99.90
12911;DHT22;6523;49.758;6.120;2023-03-01T02:00:19;-3.20;99.90
12911;DHT22;6523;49.758;6.120;2023-03-01T02:02:46;-3.10;99.90
12911;DHT22;6523;49.758;6.120;2023-03-01T02:05:43;-3.20;99.90
12911;DHT22;6523;49.758;6.120;2023-03-01T02:08:06;-3.20;99.90
12911;DHT22;6523;49.758;6.120;2023-03-01T02:10:34;-3.30;99.90
12911;DHT22;6523;49.758;6.120;2023-03-01T02:13:01;-3.70;99.90
12911;DHT22;6523;49.758;6.120;2023-03-01T02:15:32;-3.50;99.90
12911;DHT22;6523;49.758;6.120;2023-03-01T02:17:58;-3.40;99.90
12911;DHT22;6523;49.758;6.120;2023-03-01T02:20:28;-3.50;99.90
12911;DHT22;6523;49.758;6.120;2023-03-01T02:22:58;-3.60;99.90
12911;DHT22;6523;49.758;6.120;2023-03-01T02:25:38;-3.40;99.90
12911;DHT22;6523;49.758;6.120;2023-03-01T02:30:41;-3.60;99.90
12911;DHT22;6523;49.758;6.120;2023-03-01T02:33:28;-3.80;99.90
12911;DHT22;6523;49.758;6.120;2023-03-01T02:35:59;-3.90;99.90
12911;DHT22;6523;49.758;6.120;2023-03-01T02:38:26;-3.80;99.90
12911;DHT22;6523;49.758;6.120;2023-03-01T02:40:52;-3.70;99.90
12911;DHT22;6523;49.758;6.120;2023-03-01T02:43:19;-3.60;99.90
12911;DHT22;6523;49.758;6.120;2023-03-01T02:45:52;-3.70;99.90
12911;DHT22;6523;49.758;6.120;2023-03-01T02:48:19;-3.80;99.90
12911;DHT22;6523;49.758;6.120;2023-03-01T02:56:22;-4.00;99.90
12911;DHT22;6523;49.758;6.120;2023-03-01T02:58:48;-4.00;99.90
12911;DHT22;6523;49.758;6.120;2023-03-01T03:01:18;-3.90;99.90
12911;DHT22;6523;49.758;6.120;2023-03-01T03:03:44;-3.80;99.90
12911;DHT22;6523;49.758;6.120;2023-03-01T03:06:09;-3.80;99.90
12911;DHT22;6523;49.758;6.120;2023-03-01T03:08:35;-3.90;99.90
12911;DHT22;6523;49.758;6.120;2023-03-01T03:11:01;-4.00;99.90
12911;DHT22;6523;49.758;6.120;2023-03-01T03:13:27;-4.00;99.90
12911;DHT22;6523;49.758;6.120;2023-03-01T03:15:54;-3.80;99.90
12911;DHT22;6523;49.758;6.120;2023-03-01T03:18:20;-3.90;99.90
12911;DHT22;6523;49.758;6.120;2023-03-01T03:20:46;-4.00;99.90
12911;DHT22;6523;49.758;6.120;2023-03-01T03:23:12;-3.80;99.90
12911;DHT22;6523;49.758;6.120;2023-03-01T03:25:37;-3.80;99.90
12911;DHT22;6523;49.758;6.120;2023-03-01T03:28:04;-3.80;99.90
12911;DHT22;6523;49.758;6.120;2023-03-01T03:30:36;-3.60;99.90
12911;DHT22;6523;49.758;6.120;2023-03-01T03:33:02;-3.40;99.90
12911;DHT22;6523;49.758;6.120;2023-03-01T03:35:34;-3.30;99.90
12911;DHT22;6523;49.758;6.120;2023-03-01T03:38:04;-3.20;99.90
12911;DHT22;6523;49.758;6.120;2023-03-01T03:40:39;-3.30;99.90
12911;DHT22;6523;49.758;6.120;2023-03-01T03:43:07;-3.40;99.90
12911;DHT22;6523;49.758;6.120;2023-03-01T03:45:34;-3.40;99.90
12911;DHT22;6523;49.758;6.120;2023-03-01T03:48:01;-3.40;99.90
12911;DHT22;6523;49.758;6.120;2023-03-01T03:50:26;-3.30;99.90
12911;DHT22;6523;49.758;6.120;2023-03-01T03:52:52;-3.30;99.90
12911;DHT22;6523;49.758;6.120;2023-03-01T03:55:18;-3.20;99.90
12911;DHT22;6523;49.758;6.120;2023-03-01T03:57:45;-3.10;99.90
12911;DHT22;6523;49.758;6.120;2023-03-01T04:00:21;-3.10;99.90
12911;DHT22;6523;49.758;6.120;2023-03-01T04:02:50;-3.10;99.90
12911;DHT22;6523;49.758;6.120;2023-03-01T04:05:18;-2.90;99.90
12911;DHT22;6523;49.758;6.120;2023-03-01T04:07:45;-2.90;99.90
12911;DHT22;6523;49.758;6.120;2023-03-01T04:10:19;-2.80;99.90
12911;DHT22;6523;49.758;6.120;2023-03-01T04:12:45;-2.70;99.90
12911;DHT22;6523;49.758;6.120;2023-03-01T04:15:12;-2.50;99.90
12911;DHT22;6523;49.758;6.120;2023-03-01T04:17:44;-2.50;99.90
12911;DHT22;6523;49.758;6.120;2023-03-01T04:20:15;-2.60;99.90
12911;DHT22;6523;49.758;6.120;2023-03-01T04:22:43;-2.80;99.90
12911;DHT22;6523;49.758;6.120;2023-03-01T04:25:08;-2.80;99.90
12911;DHT22;6523;49.758;6.120;2023-03-01T04:27:35;-2.90;99.90
12911;DHT22;6523;49.758;6.120;2023-03-01T04:30:02;-2.90;99.90
12911;DHT22;6523;49.758;6.120;2023-03-01T04:32:28;-2.90;99.90
12911;DHT22;6523;49.758;6.120;2023-03-01T04:34:54;-2.90;99.90
12911;DHT22;6523;49.758;6.120;2023-03-01T04:37:19;-2.90;99.90
12911;DHT22;6523;49.758;6.120;2023-03-01T04:39:45;-3.00;99.90
12911;DHT22;6523;49.758;6.120;2023-03-01T04:42:11;-3.00;99.90
12911;DHT22;6523;49.758;6.120;2023-03-01T04:44:37;-3.00;99.90
12911;DHT22;6523;49.758;6.120;2023-03-01T04:47:03;-3.00;99.90
12911;DHT22;6523;49.758;6.120;2023-03-01T04:49:28;-3.00;99.90
12911;DHT22;6523;49.758;6.120;2023-03-01T04:51:54;-3.00;99.90
12911;DHT22;6523;49.758;6.120;2023-03-01T04:54:19;-3.10;99.90
12911;DHT22;6523;49.758;6.120;2023-03-01T04:56:45;-3.10;99.90
12911;DHT22;6523;49.758;6.120;2023-03-01T04:59:10;-3.20;99.90
12911;DHT22;6523;49.758;6.120;2023-03-01T05:01:37;-3.10;99.90
12911;DHT22;6523;49.758;6.120;2023-03-01T05:04:03;-3.10;99.90
12911;DHT22;6523;49.758;6.120;2023-03-01T05:06:31;-3.00;99.90
12911;DHT22;6523;49.758;6.120;2023-03-01T05:08:57;-3.00;99.90
12911;DHT22;6523;49.758;6.120;2023-03-01T05:11:23;-2.90;99.90
12911;DHT22;6523;49.758;6.120;2023-03-01T05:13:48;-2.90;99.90
12911;DHT22;6523;49.758;6.120;2023-03-01T05:16:15;-2.90;99.90
12911;DHT22;6523;49.758;6.120;2023-03-01T05:18:42;-2.90;99.90
12911;DHT22;6523;49.758;6.120;2023-03-01T05:21:13;-2.90;99.90
12911;DHT22;6523;49.758;6.120;2023-03-01T05:23:41;-2.90;99.90
12911;DHT22;6523;49.758;6.120;2023-03-01T05:26:08;-3.00;99.90
12911;DHT22;6523;49.758;6.120;2023-03-01T05:28:34;-2.90;99.90
12911;DHT22;6523;49.758;6.120;2023-03-01T05:31:01;-3.00;99.90
12911;DHT22;6523;49.758;6.120;2023-03-01T05:33:27;-3.00;99.90
12911;DHT22;6523;49.758;6.120;2023-03-01T05:35:53;-3.00;99.90
12911;DHT22;6523;49.758;6.120;2023-03-01T05:38:19;-3.00;99.90
12911;DHT22;6523;49.758;6.120;2023-03-01T05:40:47;-3.00;99.90
12911;DHT22;6523;49.758;6.120;2023-03-01T05:43:14;-3.00;99.90
12911;DHT22;6523;49.758;6.120;2023-03-01T05:45:40;-3.00;99.90
12911;DHT22;6523;49.758;6.120;2023-03-01T05:48:07;-3.10;99.90
12911;DHT22;6523;49.758;6.120;2023-03-01T05:50:39;-3.10;99.90
12911;DHT22;6523;49.758;6.120;2023-03-01T05:53:08;-3.00;99.90
12911;DHT22;6523;49.758;6.120;2023-03-01T05:55:35;-3.00;99.90
12911;DHT22;6523;49.758;6.120;2023-03-01T05:58:03;-3.20;99.90
12911;DHT22;6523;49.758;6.120;2023-03-01T06:00:30;-3.00;99.90
12911;DHT22;6523;49.758;6.120;2023-03-01T06:02:57;-2.90;99.90
12911;DHT22;6523;49.758;6.120;2023-03-01T06:05:24;-2.90;99.90
12911;DHT22;6523;49.758;6.120;2023-03-01T06:07:49;-2.90;99.90
12911;DHT22;6523;49.758;6.120;2023-03-01T06:10:16;-2.90;99.90
12911;DHT22;6523;49.758;6.120;2023-03-01T06:12:42;-2.90;99.90
12911;DHT22;6523;49.758;6.120;2023-03-01T06:15:10;-2.90;99.90
12911;DHT22;6523;49.758;6.120;2023-03-01T06:17:38;-2.90;99.90
12911;DHT22;6523;49.758;6.120;2023-03-01T06:20:05;-2.90;99.90
12911;DHT22;6523;49.758;6.120;2023-03-01T06:22:31;-2.90;99.90
12911;DHT22;6523;49.758;6.120;2023-03-01T06:24:57;-2.90;99.90
12911;DHT22;6523;49.758;6.120;2023-03-01T06:27:23;-2.90;99.90
12911;DHT22;6523;49.758;6.120;2023-03-01T06:29:48;-2.90;99.90
12911;DHT22;6523;49.758;6.120;2023-03-01T06:32:14;-3.10;99.90
12911;DHT22;6523;49.758;6.120;2023-03-01T06:34:40;-3.10;99.90
12911;DHT22;6523;49.758;6.120;2023-03-01T06:37:06;-3.00;99.90
12911;DHT22;6523;49.758;6.120;2023-03-01T06:39:32;-3.00;99.90
12911;DHT22;6523;49.758;6.120;2023-03-01T06:41:58;-3.00;99.90
12911;DHT22;6523;49.758;6.120;2023-03-01T06:44:24;-3.10;99.90
12911;DHT22;6523;49.758;6.120;2023-03-01T06:46:49;-3.10;99.90
12911;DHT22;6523;49.758;6.120;2023-03-01T06:49:15;-3.10;99.90
12911;DHT22;6523;49.758;6.120;2023-03-01T06:51:43;-3.10;99.90
12911;DHT22;6523;49.758;6.120;2023-03-01T06:54:09;-3.00;99.90
12911;DHT22;6523;49.758;6.120;2023-03-01T06:56:35;-3.00;99.90
12911;DHT22;6523;49.758;6.120;2023-03-01T06:59:00;-2.90;99.90
12911;DHT22;6523;49.758;6.120;2023-03-01T07:01:26;-2.80;99.90
12911;DHT22;6523;49.758;6.120;2023-03-01T07:03:51;-2.70;99.90
12911;DHT22;6523;49.758;6.120;2023-03-01T07:06:17;-2.60;99.90
12911;DHT22;6523;49.758;6.120;2023-03-01T07:08:43;-2.60;99.90
12911;DHT22;6523;49.758;6.120;2023-03-01T07:11:08;-2.50;99.90
12911;DHT22;6523;49.758;6.120;2023-03-01T07:13:34;-2.50;99.90
12911;DHT22;6523;49.758;6.120;2023-03-01T07:16:00;-2.30;99.90
12911;DHT22;6523;49.758;6.120;2023-03-01T07:18:25;-2.30;99.90
12911;DHT22;6523;49.758;6.120;2023-03-01T07:20:51;-2.30;99.90
12911;DHT22;6523;49.758;6.120;2023-03-01T07:23:16;-2.30;99.90
12911;DHT22;6523;49.758;6.120;2023-03-01T07:25:42;-2.20;99.90
12911;DHT22;6523;49.758;6.120;2023-03-01T07:28:07;-2.20;99.90
12911;DHT22;6523;49.758;6.120;2023-03-01T07:30:33;-2.20;99.90
12911;DHT22;6523;49.758;6.120;2023-03-01T07:32:58;-2.10;99.90
12911;DHT22;6523;49.758;6.120;2023-03-01T07:35:27;-2.10;99.90
12911;DHT22;6523;49.758;6.120;2023-03-01T07:37:53;-2.10;99.90
12911;DHT22;6523;49.758;6.120;2023-03-01T07:40:19;-2.10;99.90
12911;DHT22;6523;49.758;6.120;2023-03-01T07:42:44;-2.10;99.90
12911;DHT22;6523;49.758;6.120;2023-03-01T07:45:10;-2.00;99.90
12911;DHT22;6523;49.758;6.120;2023-03-01T07:47:36;-2.00;99.90
12911;DHT22;6523;49.758;6.120;2023-03-01T07:50:03;-2.00;99.90
12911;DHT22;6523;49.758;6.120;2023-03-01T07:52:29;-2.00;99.90
12911;DHT22;6523;49.758;6.120;2023-03-01T07:54:56;-1.90;99.90
12911;DHT22;6523;49.758;6.120;2023-03-01T07:57:22;-1.90;99.90
12911;DHT22;6523;49.758;6.120;2023-03-01T07:59:47;-1.80;99.90
12911;DHT22;6523;49.758;6.120;2023-03-01T08:02:13;-1.70;99.90
12911;DHT22;6523;49.758;6.120;2023-03-01T08:04:40;-1.60;99.90
12911;DHT22;6523;49.758;6.120;2023-03-01T08:07:06;-1.50;99.90
12911;DHT22;6523;49.758;6.120;2023-03-01T08:09:34;-1.50;99.90
12911;DHT22;6523;49.758;6.120;2023-03-01T08:12:00;-1.40;99.90
12911;DHT22;6523;49.758;6.120;2023-03-01T08:14:26;-1.30;99.90
12911;DHT22;6523;49.758;6.120;2023-03-01T08:16:51;-1.20;99.90
12911;DHT22;6523;49.758;6.120;2023-03-01T08:19:17;-1.20;99.90
12911;DHT22;6523;49.758;6.120;2023-03-01T08:21:43;-1.10;99.90
12911;DHT22;6523;49.758;6.120;2023-03-01T08:24:09;-1.10;99.90
12911;DHT22;6523;49.758;6.120;2023-03-01T08:26:36;-1.00;99.90
12911;DHT22;6523;49.758;6.120;2023-03-01T08:29:02;-0.90;99.90
12911;DHT22;6523;49.758;6.120;2023-03-01T08:31:33;-0.90;99.90
12911;DHT22;6523;49.758;6.120;2023-03-01T08:34:02;-0.90;99.90
12911;DHT22;6523;49.758;6.120;2023-03-01T08:36:34;-0.80;99.90
12911;DHT22;6523;49.758;6.120;2023-03-01T08:39:00;-0.80;99.90
12911;DHT22;6523;49.758;6.120;2023-03-01T08:41:26;-0.70;99.90
12911;DHT22;6523;49.758;6.120;2023-03-01T08:43:52;-0.60;99.90
12911;DHT22;6523;49.758;6.120;2023-03-01T08:46:18;-0.60;99.90
12911;DHT22;6523;49.758;6.120;2023-03-01T08:48:43;-0.60;99.90
12911;DHT22;6523;49.758;6.120;2023-03-01T08:51:12;-0.60;99.90
12911;DHT22;6523;49.758;6.120;2023-03-01T08:53:38;-0.60;99.90
12911;DHT22;6523;49.758;6.120;2023-03-01T08:56:04;-0.50;99.90
12911;DHT22;6523;49.758;6.120;2023-03-01T08:58:30;-0.60;99.90
12911;DHT22;6523;49.758;6.120;2023-03-01T09:00:56;-0.60;99.90
12911;DHT22;6523;49.758;6.120;2023-03-01T09:03:22;-0.50;99.90
12911;DHT22;6523;49.758;6.120;2023-03-01T09:05:49;-0.50;99.90
12911;DHT22;6523;49.758;6.120;2023-03-01T09:08:18;-0.50;99.90
12911;DHT22;6523;49.758;6.120;2023-03-01T09:10:44;-0.40;99.90
12911;DHT22;6523;49.758;6.120;2023-03-01T09:13:10;-0.40;99.90
12911;DHT22;6523;49.758;6.120;2023-03-01T09:15:39;-0.40;99.90
12911;DHT22;6523;49.758;6.120;2023-03-01T09:18:05;-0.30;99.90
12911;DHT22;6523;49.758;6.120;2023-03-01T09:20:31;-0.30;99.90
12911;DHT22;6523;49.758;6.120;2023-03-01T09:22:57;-0.20;99.90
12911;DHT22;6523;49.758;6.120;2023-03-01T09:25:23;-0.20;99.90
12911;DHT22;6523;49.758;6.120;2023-03-01T09:27:53;-0.10;99.90
12911;DHT22;6523;49.758;6.120;2023-03-01T09:30:18;-0.10;99.90
12911;DHT22;6523;49.758;6.120;2023-03-01T09:32:44;0.00;99.90
12911;DHT22;6523;49.758;6.120;2023-03-01T09:35:11;0.00;99.90
12911;DHT22;6523;49.758;6.120;2023-03-01T09:37:37;0.10;99.90
12911;DHT22;6523;49.758;6.120;2023-03-01T09:40:05;0.20;99.90
12911;DHT22;6523;49.758;6.120;2023-03-01T09:42:33;0.30;99.90
12911;DHT22;6523;49.758;6.120;2023-03-01T09:45:27;0.30;99.90
12911;DHT22;6523;49.758;6.120;2023-03-01T09:47:55;0.40;99.90
12911;DHT22;6523;49.758;6.120;2023-03-01T09:50:22;0.50;99.90
12911;DHT22;6523;49.758;6.120;2023-03-01T09:53:02;0.70;99.90
12911;DHT22;6523;49.758;6.120;2023-03-01T09:58:29;0.80;99.90
12911;DHT22;6523;49.758;6.120;2023-03-01T10:00:59;0.80;99.90
12911;DHT22;6523;49.758;6.120;2023-03-01T10:03:36;0.80;99.90
12911;DHT22;6523;49.758;6.120;2023-03-01T10:06:21;0.90;99.90
12911;DHT22;6523;49.758;6.120;2023-03-01T10:09:18;1.30;99.90
12911;DHT22;6523;49.758;6.120;2023-03-01T10:11:51;1.50;99.90
12911;DHT22;6523;49.758;6.120;2023-03-01T10:16:54;1.80;99.90
12911;DHT22;6523;49.758;6.120;2023-03-01T10:19:29;1.90;99.90
12911;DHT22;6523;49.758;6.120;2023-03-01T10:22:00;2.30;99.90
12911;DHT22;6523;49.758;6.120;2023-03-01T10:24:29;2.80;99.90
12911;DHT22;6523;49.758;6.120;2023-03-01T10:26:59;3.30;99.90
12911;DHT22;6523;49.758;6.120;2023-03-01T10:29:58;3.50;99.90
12911;DHT22;6523;49.758;6.120;2023-03-01T10:32:28;4.10;99.90
12911;DHT22;6523;49.758;6.120;2023-03-01T10:34:54;4.50;99.90
12911;DHT22;6523;49.758;6.120;2023-03-01T10:37:20;4.80;99.90
12911;DHT22;6523;49.758;6.120;2023-03-01T10:40:08;5.20;99.90
12911;DHT22;6523;49.758;6.120;2023-03-01T10:42:39;5.60;99.90
12911;DHT22;6523;49.758;6.120;2023-03-01T10:48:21;6.30;99.90
12911;DHT22;6523;49.758;6.120;2023-03-01T10:51:05;6.00;99.90
12911;DHT22;6523;49.758;6.120;2023-03-01T10:53:40;6.30;99.90
12911;DHT22;6523;49.758;6.120;2023-03-01T10:56:07;6.30;99.90
12911;DHT22;6523;49.758;6.120;2023-03-01T10:58:36;5.80;99.90
12911;DHT22;6523;49.758;6.120;2023-03-01T11:03:41;6.70;99.90
12911;DHT22;6523;49.758;6.120;2023-03-01T11:08:43;7.30;99.90
12911;DHT22;6523;49.758;6.120;2023-03-01T11:13:51;7.40;99.90
12911;DHT22;6523;49.758;6.120;2023-03-01T11:16:36;7.20;99.90
12911;DHT22;6523;49.758;6.120;2023-03-01T11:21:36;7.00;99.90
12911;DHT22;6523;49.758;6.120;2023-03-01T11:24:03;7.20;99.90
12911;DHT22;6523;49.758;6.120;2023-03-01T11:26:31;7.40;99.90
12911;DHT22;6523;49.758;6.120;2023-03-01T11:29:03;7.20;99.90
12911;DHT22;6523;49.758;6.120;2023-03-01T11:31:30;7.70;99.90
12911;DHT22;6523;49.758;6.120;2023-03-01T11:34:10;7.70;99.90
12911;DHT22;6523;49.758;6.120;2023-03-01T11:36:56;7.60;99.90
12911;DHT22;6523;49.758;6.120;2023-03-01T11:45:03;8.00;99.70
12911;DHT22;6523;49.758;6.120;2023-03-01T11:50:28;7.70;94.40
12911;DHT22;6523;49.758;6.120;2023-03-01T11:58:32;8.10;92.20
12911;DHT22;6523;49.758;6.120;2023-03-01T12:06:38;8.20;83.80
12911;DHT22;6523;49.758;6.120;2023-03-01T12:15:08;8.60;67.20
12911;DHT22;6523;49.758;6.120;2023-03-01T12:23:31;8.90;60.10
12911;DHT22;6523;49.758;6.120;2023-03-01T12:29:14;8.90;53.60
12911;DHT22;6523;49.758;6.120;2023-03-01T12:43:13;9.70;44.60
12911;DHT22;6523;49.758;6.120;2023-03-01T12:45:57;9.50;44.50
12911;DHT22;6523;49.758;6.120;2023-03-01T12:50:55;9.40;47.80
12911;DHT22;6523;49.758;6.120;2023-03-01T12:53:27;9.50;45.30
12911;DHT22;6523;49.758;6.120;2023-03-01T12:55:56;9.60;39.80
12911;DHT22;6523;49.758;6.120;2023-03-01T12:58:34;9.80;39.20
12911;DHT22;6523;49.758;6.120;2023-03-01T13:06:50;9.90;30.40
12911;DHT22;6523;49.758;6.120;2023-03-01T13:09:41;10.30;28.70
12911;DHT22;6523;49.758;6.120;2023-03-01T13:17:54;10.40;16.70
12911;DHT22;6523;49.758;6.120;2023-03-01T13:26:05;10.80;24.10
12911;DHT22;6523;49.758;6.120;2023-03-01T13:28:41;10.60;20.30
12911;DHT22;6523;49.758;6.120;2023-03-01T13:49:57;10.80;2.40
12911;DHT22;6523;49.758;6.120;2023-03-01T13:52:37;10.50;8.20
12911;DHT22;6523;49.758;6.120;2023-03-01T13:58:02;11.50;8.10
12911;DHT22;6523;49.758;6.120;2023-03-01T14:00:47;12.00;12.10
12911;DHT22;6523;49.758;6.120;2023-03-01T14:03:17;11.60;6.90
12911;DHT22;6523;49.758;6.120;2023-03-01T14:08:27;11.00;2.70
12911;DHT22;6523;49.758;6.120;2023-03-01T14:14:20;10.50;4.80
12911;DHT22;6523;49.758;6.120;2023-03-01T14:17:00;10.50;1.80
12911;DHT22;6523;49.758;6.120;2023-03-01T14:19:30;10.60;4.20
12911;DHT22;6523;49.758;6.120;2023-03-01T14:24:58;10.90;4.90
12911;DHT22;6523;49.758;6.120;2023-03-01T14:27:43;10.60;1.40
12911;DHT22;6523;49.758;6.120;2023-03-01T14:30:20;10.60;4.20
12911;DHT22;6523;49.758;6.120;2023-03-01T14:32:58;11.10;4.40
12911;DHT22;6523;49.758;6.120;2023-03-01T14:35:27;11.60;4.60
12911;DHT22;6523;49.758;6.120;2023-03-01T14:37:53;11.80;1.00
12911;DHT22;6523;49.758;6.120;2023-03-01T14:40:26;11.50;1.00
12911;DHT22;6523;49.758;6.120;2023-03-01T14:42:53;11.40;1.00
12911;DHT22;6523;49.758;6.120;2023-03-01T14:45:19;11.60;1.00
12911;DHT22;6523;49.758;6.120;2023-03-01T14:47:45;11.20;1.00
12911;DHT22;6523;49.758;6.120;2023-03-01T14:51:02;11.10;1.00
12911;DHT22;6523;49.758;6.120;2023-03-01T14:53:27;11.20;1.00
12911;DHT22;6523;49.758;6.120;2023-03-01T14:55:55;10.50;1.00
12911;DHT22;6523;49.758;6.120;2023-03-01T14:58:24;10.40;1.00
12911;DHT22;6523;49.758;6.120;2023-03-01T15:01:03;10.90;5.00
12911;DHT22;6523;49.758;6.120;2023-03-01T15:03:38;11.00;1.00
12911;DHT22;6523;49.758;6.120;2023-03-01T15:06:07;10.90;1.00
12911;DHT22;6523;49.758;6.120;2023-03-01T15:08:34;10.80;1.00
12911;DHT22;6523;49.758;6.120;2023-03-01T15:11:15;11.00;1.00
12911;DHT22;6523;49.758;6.120;2023-03-01T15:13:42;11.00;1.00
12911;DHT22;6523;49.758;6.120;2023-03-01T15:16:12;11.10;1.00
12911;DHT22;6523;49.758;6.120;2023-03-01T15:18:45;11.20;1.00
12911;DHT22;6523;49.758;6.120;2023-03-01T15:21:18;10.60;1.00
12911;DHT22;6523;49.758;6.120;2023-03-01T15:23:53;10.50;1.00
12911;DHT22;6523;49.758;6.120;2023-03-01T15:26:41;10.50;1.70
12911;DHT22;6523;49.758;6.120;2023-03-01T15:29:18;10.30;1.00
12911;DHT22;6523;49.758;6.120;2023-03-01T15:31:54;10.10;1.00
12911;DHT22;6523;49.758;6.120;2023-03-01T15:34:26;10.70;1.00
12911;DHT22;6523;49.758;6.120;2023-03-01T15:36:54;10.60;1.00
12911;DHT22;6523;49.758;6.120;2023-03-01T15:39:33;10.60;1.00
12911;DHT22;6523;49.758;6.120;2023-03-01T15:42:04;10.70;1.00
12911;DHT22;6523;49.758;6.120;2023-03-01T15:44:34;10.60;1.00
12911;DHT22;6523;49.758;6.120;2023-03-01T15:47:00;9.90;1.00
12911;DHT22;6523;49.758;6.120;2023-03-01T15:52:09;9.50;1.00
12911;DHT22;6523;49.758;6.120;2023-03-01T15:54:38;9.50;1.00
12911;DHT22;6523;49.758;6.120;2023-03-01T15:57:09;9.30;1.00
12911;DHT22;6523;49.758;6.120;2023-03-01T15:59:37;9.30;1.00
12911;DHT22;6523;49.758;6.120;2023-03-01T16:02:09;9.30;3.80
12911;DHT22;6523;49.758;6.120;2023-03-01T16:04:34;9.30;4.90
12911;DHT22;6523;49.758;6.120;2023-03-01T16:07:00;9.30;6.60
12911;DHT22;6523;49.758;6.120;2023-03-01T16:09:26;9.20;4.90
12911;DHT22;6523;49.758;6.120;2023-03-01T16:11:53;9.10;4.50
12911;DHT22;6523;49.758;6.120;2023-03-01T16:14:19;8.70;1.70
12911;DHT22;6523;49.758;6.120;2023-03-01T16:16:46;8.50;1.30
12911;DHT22;6523;49.758;6.120;2023-03-01T16:19:13;8.50;5.40
12911;DHT22;6523;49.758;6.120;2023-03-01T16:21:40;8.50;3.90
12911;DHT22;6523;49.758;6.120;2023-03-01T16:24:06;8.20;1.80
12911;DHT22;6523;49.758;6.120;2023-03-01T16:26:32;8.30;5.10
12911;DHT22;6523;49.758;6.120;2023-03-01T16:28:58;8.10;6.80
12911;DHT22;6523;49.758;6.120;2023-03-01T16:31:24;8.00;7.60
12911;DHT22;6523;49.758;6.120;2023-03-01T16:33:56;7.70;9.20
12911;DHT22;6523;49.758;6.120;2023-03-01T16:36:23;7.70;12.70
12911;DHT22;6523;49.758;6.120;2023-03-01T16:38:51;7.70;16.80
12911;DHT22;6523;49.758;6.120;2023-03-01T16:41:20;7.60;15.60
12911;DHT22;6523;49.758;6.120;2023-03-01T16:43:46;7.40;15.00
12911;DHT22;6523;49.758;6.120;2023-03-01T16:46:18;7.30;14.20
12911;DHT22;6523;49.758;6.120;2023-03-01T16:48:45;7.10;21.30
12911;DHT22;6523;49.758;6.120;2023-03-01T16:51:12;6.90;19.20
12911;DHT22;6523;49.758;6.120;2023-03-01T16:53:38;7.00;20.00
12911;DHT22;6523;49.758;6.120;2023-03-01T16:56:05;6.70;26.70
12911;DHT22;6523;49.758;6.120;2023-03-01T16:58:31;6.40;25.10
12911;DHT22;6523;49.758;6.120;2023-03-01T17:01:07;6.20;25.70
12911;DHT22;6523;49.758;6.120;2023-03-01T17:03:33;6.00;28.90
12911;DHT22;6523;49.758;6.120;2023-03-01T17:06:05;5.90;28.10
12911;DHT22;6523;49.758;6.120;2023-03-01T17:08:31;5.60;32.20
12911;DHT22;6523;49.758;6.120;2023-03-01T17:13:30;5.40;33.50
12911;DHT22;6523;49.758;6.120;2023-03-01T17:15:56;5.40;35.90
12911;DHT22;6523;49.758;6.120;2023-03-01T17:18:21;5.40;37.20
12911;DHT22;6523;49.758;6.120;2023-03-01T17:20:47;5.30;37.80
12911;DHT22;6523;49.758;6.120;2023-03-01T17:23:12;5.10;40.10
12911;DHT22;6523;49.758;6.120;2023-03-01T17:25:42;5.10;42.30
12911;DHT22;6523;49.758;6.120;2023-03-01T17:28:10;5.00;42.80
12911;DHT22;6523;49.758;6.120;2023-03-01T17:30:35;5.00;41.50
12911;DHT22;6523;49.758;6.120;2023-03-01T17:33:01;4.70;42.30
12911;DHT22;6523;49.758;6.120;2023-03-01T17:35:27;4.60;44.90
12911;DHT22;6523;49.758;6.120;2023-03-01T17:37:52;4.50;47.70
12911;DHT22;6523;49.758;6.120;2023-03-01T17:40:18;4.40;47.20
12911;DHT22;6523;49.758;6.120;2023-03-01T17:42:43;4.20;47.90
12911;DHT22;6523;49.758;6.120;2023-03-01T17:45:09;4.00;51.10
12911;DHT22;6523;49.758;6.120;2023-03-01T17:47:35;3.90;51.30
12911;DHT22;6523;49.758;6.120;2023-03-01T17:50:01;3.70;53.80
12911;DHT22;6523;49.758;6.120;2023-03-01T17:52:28;3.50;55.60
12911;DHT22;6523;49.758;6.120;2023-03-01T17:54:53;3.60;56.40
12911;DHT22;6523;49.758;6.120;2023-03-01T17:57:19;2.90;57.00
12911;DHT22;6523;49.758;6.120;2023-03-01T17:59:44;2.60;60.20
12911;DHT22;6523;49.758;6.120;2023-03-01T18:02:11;2.80;64.50
12911;DHT22;6523;49.758;6.120;2023-03-01T18:04:37;2.90;63.60
12911;DHT22;6523;49.758;6.120;2023-03-01T18:07:03;2.30;63.00
12911;DHT22;6523;49.758;6.120;2023-03-01T18:09:29;2.40;70.00
12911;DHT22;6523;49.758;6.120;2023-03-01T18:11:55;2.50;69.50
12911;DHT22;6523;49.758;6.120;2023-03-01T18:14:21;2.60;64.40